Time;durP1;ratioP1;P1;durP2;ratioP2;P2;SDS_P1;SDS_P2;PMS_P1;PMS_P2;Temp;Humidity;BMP_temperature;BMP_pressure;BME280_temperature;BME280_humidity;BME280_pressure;Samples;Min_cycle;Max_cycle;Signal;HPM_P1;HPM_P2
2021/10/05 00:00:57;;;;;;;7.63;5.25;;;;;;;12.64;48.29;100410.25;5053896;28;20158;-77
2021/10/05 00:03:22;;;;;;;7.40;4.35;;;;;;;12.54;48.28;100410.41;5053937;28;20099;-76
2021/10/05 00:05:47;;;;;;;5.35;4.70;;;;;;;12.33;48.21;100403.03;5053654;28;20039;-76
2021/10/05 00:08:13;;;;;;;7.07;4.88;;;;;;;12.36;48.21;100418.56;5053501;28;20028;-76
2021/10/05 00:10:38;;;;;;;8.23;5.20;;;;;;;12.32;48.49;100419.91;5053506;28;20039;-77
2021/10/05 00:13:04;;;;;;;6.78;5.05;;;;;;;12.33;48.54;100413.63;5053557;28;20107;-76
2021/10/05 00:15:29;;;;;;;9.50;5.00;;;;;;;12.18;49.04;100398.56;5053385;28;20043;-76
2021/10/05 00:17:54;;;;;;;9.43;4.65;;;;;;;12.24;48.43;100419.09;5053132;28;20035;-75
2021/10/05 00:20:20;;;;;;;6.13;4.78;;;;;;;12.13;49.31;100390.31;5053324;28;20025;-76
2021/10/05 00:22:46;;;;;;;5.82;4.57;;;;;;;12.03;48.99;100387.84;5053086;28;20489;-76
2021/10/05 00:25:12;;;;;;;5.53;4.30;;;;;;;11.99;48.77;100370.63;5051988;28;20025;-76
2021/10/05 00:27:38;;;;;;;8.93;5.25;;;;;;;12.02;48.80;100384.38;5053207;28;20052;-76
2021/10/05 00:30:06;;;;;;;7.38;5.38;;;;;;;12.17;48.98;100432.16;5053251;28;20029;-76
2021/10/05 00:32:32;;;;;;;7.10;5.20;;;;;;;12.16;48.44;100411.16;5053168;28;20425;-76
2021/10/05 00:34:57;;;;;;;6.00;4.28;;;;;;;12.16;48.96;100411.97;5053104;28;20037;-76
2021/10/05 00:37:23;;;;;;;22.13;5.45;;;;;;;11.91;48.70;100368.81;5052980;28;20033;-75
2021/10/05 00:39:49;;;;;;;7.43;4.90;;;;;;;12.05;49.47;100399.09;5053264;28;20033;-76
2021/10/05 00:42:14;;;;;;;8.32;5.13;;;;;;;12.12;49.18;100402.72;5053116;28;20017;-75
2021/10/05 00:44:40;;;;;;;8.02;4.90;;;;;;;12.02;48.80;100391.47;5053176;28;20482;-76
2021/10/05 00:47:10;;;;;;;6.55;4.82;;;;;;;12.15;48.84;100404.22;5052955;28;20024;-76
2021/10/05 00:49:38;;;;;;;6.88;4.68;;;;;;;12.14;49.04;100403.38;5052989;28;20029;-76
2021/10/05 00:52:05;;;;;;;10.48;4.97;;;;;;;12.19;48.17;100402.88;5052818;28;20490;-76
2021/10/05 00:54:32;;;;;;;7.03;5.25;;;;;;;11.86;48.96;100344.66;5052852;28;20040;-76
2021/10/05 00:56:58;;;;;;;7.18;5.15;;;;;;;12.32;48.37;100409.31;5052472;28;20433;-75
2021/10/05 00:59:23;;;;;;;5.05;4.25;;;;;;;11.53;47.96;100279.50;5051517;28;20036;-76
2021/10/05 01:01:49;;;;;;;5.57;4.88;;;;;;;11.98;48.26;100355.75;5052530;28;20029;-76
2021/10/05 01:04:14;;;;;;;6.82;4.57;;;;;;;12.25;48.47;100388.97;5052339;28;20530;-76
2021/10/05 01:06:55;;;;;;;6.95;4.43;;;;;;;12.30;48.41;100389.28;5052306;28;20530;-76
2021/10/05 01:09:21;;;;;;;9.02;4.85;;;;;;;11.65;48.16;100280.81;5052303;28;20108;-76
2021/10/05 01:11:47;;;;;;;5.65;4.70;;;;;;;12.26;49.12;100388.81;5052478;28;20488;-76
2021/10/05 01:14:12;;;;;;;7.45;4.40;;;;;;;12.00;49.24;100356.41;5052541;28;20036;-76
2021/10/05 01:16:37;;;;;;;6.70;4.57;;;;;;;11.90;49.10;100337.25;5052272;28;20036;-76
2021/10/05 01:19:03;;;;;;;7.13;4.70;;;;;;;12.06;49.11;100396.28;5052247;28;20025;-75
2021/10/05 01:21:29;;;;;;;6.22;4.50;;;;;;;11.63;49.38;100322.47;5052063;28;20033;-76
2021/10/05 01:24:02;;;;;;;5.65;4.55;;;;;;;11.59;49.11;100332.56;5052143;28;20067;-80
2021/10/05 01:26:28;;;;;;;7.00;4.78;;;;;;;11.69;49.72;100356.19;5052075;28;20025;-81
2021/10/05 01:28:53;;;;;;;7.20;4.30;;;;;;;11.50;50.26;100345.94;5051998;28;20416;-81
2021/10/05 01:31:18;;;;;;;5.20;4.65;;;;;;;11.42;49.92;100341.47;5052020;28;20091;-80
2021/10/05 01:33:44;;;;;;;5.15;4.18;;;;;;;11.28;50.14;100332.38;5051869;28;20024;-80
2021/10/05 01:36:10;;;;;;;7.88;4.50;;;;;;;11.53;50.24;100380.00;5051813;28;20094;-81
2021/10/05 01:38:35;;;;;;;6.60;4.63;;;;;;;11.54;50.23;100373.72;5051626;28;20505;-80
2021/10/05 01:41:00;;;;;;;6.25;4.15;;;;;;;11.64;50.01;100396.38;5051876;28;20486;-81
2021/10/05 01:43:26;;;;;;;5.60;4.53;;;;;;;11.15;50.30;100321.44;5050481;28;20725;-80
2021/10/05 01:45:52;;;;;;;8.13;4.50;;;;;;;11.53;50.45;100409.91;5051771;28;20036;-80
2021/10/05 01:48:18;;;;;;;7.72;4.90;;;;;;;11.50;50.63;100385.63;5051668;28;20082;-81
2021/10/05 01:50:43;;;;;;;5.97;4.65;;;;;;;11.26;50.16;100362.59;5051707;28;20104;-80
2021/10/05 01:53:09;;;;;;;7.78;4.57;;;;;;;11.40;50.50;100393.69;5051855;28;20025;-81
2021/10/05 01:55:34;;;;;;;7.78;4.45;;;;;;;11.37;50.47;100400.13;5051882;28;20025;-81
2021/10/05 01:58:00;;;;;;;7.55;4.70;;;;;;;11.39;50.27;100398.16;5051589;28;20025;-80
2021/10/05 02:00:25;;;;;;;8.10;4.95;;;;;;;11.36;49.99;100387.91;5051552;28;20561;-80
2021/10/05 02:02:53;;;;;;;10.00;5.15;;;;;;;11.19;50.70;100370.34;5051495;28;20020;-80
2021/10/05 02:05:18;;;;;;;9.50;4.97;;;;;;;11.02;50.15;100342.22;5051610;28;20108;-80
2021/10/05 02:07:44;;;;;;;9.07;4.95;;;;;;;11.20;50.17;100387.03;5050989;28;20029;-80
2021/10/05 02:10:10;;;;;;;5.72;3.97;;;;;;;11.25;50.26;100392.69;5051613;28;20082;-81
2021/10/05 02:12:36;;;;;;;8.27;5.43;;;;;;;11.13;50.53;100377.09;5051582;28;20565;-81
2021/10/05 02:15:01;;;;;;;7.50;4.78;;;;;;;11.20;50.45;100392.34;5050123;28;20116;-80
2021/10/05 02:17:27;;;;;;;8.32;5.20;;;;;;;11.20;49.89;100385.22;5051262;28;20387;-81
2021/10/05 02:19:52;;;;;;;7.78;5.03;;;;;;;11.16;50.42;100399.75;5051387;28;20056;-80
2021/10/05 02:22:18;;;;;;;7.03;4.97;;;;;;;11.12;50.48;100383.38;5051380;28;20029;-80
2021/10/05 02:24:44;;;;;;;7.28;4.97;;;;;;;11.10;50.41;100389.78;5051383;28;20032;-76
2021/10/05 02:27:16;;;;;;;7.15;5.10;;;;;;;11.06;50.21;100385.81;5050980;28;20029;-76
2021/10/05 02:29:42;;;;;;;8.95;4.63;;;;;;;11.03;50.43;100391.44;5051124;28;20032;-75
2021/10/05 02:32:09;;;;;;;9.32;5.47;;;;;;;10.93;50.19;100380.16;5050972;28;20486;-76
2021/10/05 02:34:36;;;;;;;6.32;4.20;;;;;;;10.56;50.43;100320.59;5050837;28;20179;-76
2021/10/05 02:37:04;;;;;;;6.82;5.25;;;;;;;10.49;50.92;100314.28;5049697;28;20033;-77
2021/10/05 02:39:29;;;;;;;7.13;4.30;;;;;;;11.01;50.58;100388.94;5051057;28;20029;-76
2021/10/05 02:41:55;;;;;;;6.75;4.63;;;;;;;10.53;50.79;100310.34;5050943;28;20048;-76
2021/10/05 02:44:20;;;;;;;6.13;4.43;;;;;;;10.50;51.20;100311.50;5049624;28;20036;-75
2021/10/05 02:46:46;;;;;;;7.20;4.00;;;;;;;10.85;51.21;100369.56;5050892;28;20021;-76
2021/10/05 02:49:13;;;;;;;7.60;4.38;;;;;;;10.91;51.27;100379.50;5050935;28;20069;-75
2021/10/05 02:51:38;;;;;;;6.07;4.53;;;;;;;10.81;51.38;100383.09;5051037;28;20025;-76
2021/10/05 02:54:04;;;;;;;8.70;4.40;;;;;;;10.76;51.64;100382.75;5051028;28;20039;-76
2021/10/05 02:56:29;;;;;;;6.05;4.35;;;;;;;10.52;51.81;100348.31;5050978;28;20033;-76
2021/10/05 02:58:55;;;;;;;4.78;4.28;;;;;;;10.54;51.92;100337.59;5049640;28;20420;-75
2021/10/05 03:01:20;;;;;;;7.45;5.15;;;;;;;10.76;51.81;100411.78;5051000;28;20032;-76
2021/10/05 03:03:46;;;;;;;6.82;4.20;;;;;;;10.51;51.94;100349.28;5050721;28;20021;-75
2021/10/05 03:06:11;;;;;;;6.60;4.82;;;;;;;10.74;52.05;100382.06;5050825;28;20051;-76
2021/10/05 03:08:40;;;;;;;6.72;4.35;;;;;;;10.80;51.93;100399.94;5050890;28;20027;-76
2021/10/05 03:11:05;;;;;;;9.05;4.70;;;;;;;10.37;51.74;100324.28;5050968;28;20024;-76
2021/10/05 03:13:35;;;;;;;6.35;4.60;;;;;;;10.68;51.87;100377.44;5050770;28;20173;-76
2021/10/05 03:16:08;;;;;;;5.80;4.22;;;;;;;10.71;51.80;100397.41;5050992;28;20502;-76
2021/10/05 03:18:33;;;;;;;5.50;4.00;;;;;;;10.62;52.21;100399.19;5051007;28;20417;-76
2021/10/05 03:21:01;;;;;;;7.25;5.18;;;;;;;10.60;52.33;100395.88;5053347;28;20040;-76
2021/10/05 03:23:26;;;;;;;5.30;4.72;;;;;;;10.24;52.60;100338.88;5054698;28;20484;-75
2021/10/05 03:25:52;;;;;;;7.90;4.97;;;;;;;10.38;52.55;100367.34;5054556;28;20052;-75
2021/10/05 03:28:18;;;;;;;7.28;4.82;;;;;;;10.56;52.80;100389.25;5054395;28;20025;-75
2021/10/05 03:30:43;;;;;;;7.88;5.10;;;;;;;10.49;52.40;100380.31;5054486;28;20055;-76
2021/10/05 03:33:09;;;;;;;6.70;4.63;;;;;;;9.92;52.96;100299.91;5054215;28;20467;-76
2021/10/05 03:35:34;;;;;;;7.15;4.70;;;;;;;10.50;52.49;100390.69;5054385;28;20029;-75
2021/10/05 03:38:01;;;;;;;7.07;4.72;;;;;;;10.46;52.69;100401.72;5054181;28;20521;-76
2021/10/05 03:40:28;;;;;;;7.80;5.25;;;;;;;10.45;52.90;100400.91;5054277;28;20167;-75
2021/10/05 03:42:53;;;;;;;9.32;5.18;;;;;;;9.53;52.81;100264.19;5052889;28;20420;-76
2021/10/05 03:45:19;;;;;;;7.10;4.60;;;;;;;10.30;52.85;100396.31;5054133;28;20025;-75
2021/10/05 03:47:44;;;;;;;8.02;4.75;;;;;;;10.27;53.01;100397.47;5053899;28;20028;-76
2021/10/05 03:50:10;;;;;;;11.63;5.00;;;;;;;10.21;53.08;100389.34;5053835;28;20021;-76
2021/10/05 03:52:37;;;;;;;7.00;4.80;;;;;;;10.29;53.03;100397.31;5053981;28;20159;-76
2021/10/05 03:55:07;;;;;;;6.85;4.47;;;;;;;10.29;52.96;100399.94;5054126;28;20029;-75
2021/10/05 03:57:33;;;;;;;7.40;5.07;;;;;;;10.28;53.26;100408.84;5053482;28;20025;-75
2021/10/05 03:59:58;;;;;;;8.90;5.10;;;;;;;10.28;53.04;100403.56;5053589;28;20433;-75
2021/10/05 04:02:23;;;;;;;8.43;4.97;;;;;;;10.10;53.28;100383.31;5053486;28;20456;-76
2021/10/05 04:04:49;;;;;;;8.45;5.43;;;;;;;9.87;53.27;100350.50;5053560;28;20497;-75
2021/10/05 04:07:14;;;;;;;8.27;5.28;;;;;;;10.19;53.24;100402.66;5053736;28;20025;-76
2021/10/05 04:09:40;;;;;;;7.10;4.95;;;;;;;10.11;53.36;100400.78;5053536;28;20109;-75
2021/10/05 04:12:07;;;;;;;6.03;4.57;;;;;;;10.06;53.35;100399.59;5053513;28;20039;-76
2021/10/05 04:14:33;;;;;;;7.20;5.75;;;;;;;10.11;53.64;100407.88;5053588;28;20025;-75
2021/10/05 04:16:58;;;;;;;10.73;6.38;;;;;;;10.05;53.22;100403.22;5053547;28;20033;-76
2021/10/05 04:19:24;;;;;;;6.78;5.53;;;;;;;9.98;53.51;100389.81;5053553;28;20095;-75
2021/10/05 04:21:49;;;;;;;10.60;6.57;;;;;;;9.76;53.47;100342.81;5053445;28;20028;-75
2021/10/05 04:24:15;;;;;;;11.18;6.53;;;;;;;10.19;53.09;100418.50;5053492;28;20025;-80
2021/10/05 04:26:40;;;;;;;10.45;7.35;;;;;;;10.04;52.76;100383.91;5051878;28;20079;-80
2021/10/05 04:29:05;;;;;;;8.50;6.43;;;;;;;10.30;53.23;100420.91;5051835;28;20064;-80
2021/10/05 04:31:31;;;;;;;8.85;6.63;;;;;;;10.31;52.79;100421.75;5052568;28;20025;-80
2021/10/05 04:33:56;;;;;;;9.50;6.57;;;;;;;10.27;53.27;100423.03;5051674;28;20037;-80
2021/10/05 04:36:22;;;;;;;9.15;6.57;;;;;;;9.15;53.20;100232.91;5053104;28;20025;-80
2021/10/05 04:38:47;;;;;;;11.55;7.35;;;;;;;10.35;53.02;100426.56;5052848;28;20398;-80
2021/10/05 04:41:12;;;;;;;10.45;6.72;;;;;;;10.21;53.03;100408.63;5052915;28;20031;-80
2021/10/05 04:43:38;;;;;;;9.52;7.10;;;;;;;9.10;52.65;100224.66;5053248;28;20505;-80
2021/10/05 04:46:03;;;;;;;12.70;6.65;;;;;;;10.34;52.80;100418.78;5051425;28;20456;-80
2021/10/05 04:48:29;;;;;;;12.88;7.63;;;;;;;10.52;53.13;100435.44;5052829;28;20024;-80
2021/10/05 04:50:54;;;;;;;13.52;6.97;;;;;;;10.46;52.37;100407.84;5052773;28;20037;-80
2021/10/05 04:53:20;;;;;;;10.95;6.93;;;;;;;10.62;52.66;100424.75;5052946;28;20056;-81
2021/10/05 04:55:48;;;;;;;8.98;6.90;;;;;;;10.61;52.18;100426.56;5051456;28;20043;-81
2021/10/05 04:58:14;;;;;;;12.13;7.13;;;;;;;9.90;52.49;100330.91;5052751;28;20025;-81
2021/10/05 05:00:39;;;;;;;12.00;8.35;;;;;;;10.57;52.38;100446.34;5052716;28;20417;-80
2021/10/05 05:03:04;;;;;;;13.38;7.78;;;;;;;10.56;52.24;100447.34;5052534;28;20051;-80
2021/10/05 05:05:30;;;;;;;11.10;8.25;;;;;;;10.62;52.75;100444.06;5052560;28;20024;-80
2021/10/05 05:08:00;;;;;;;11.57;7.93;;;;;;;10.61;52.16;100438.94;5052509;28;20494;-80
2021/10/05 05:10:26;;;;;;;10.65;8.13;;;;;;;10.70;52.32;100445.94;5052496;28;20108;-81
2021/10/05 05:12:52;;;;;;;14.35;8.05;;;;;;;10.75;51.98;100449.75;5052440;28;20032;-81
2021/10/05 05:15:18;;;;;;;14.52;8.23;;;;;;;10.54;52.15;100407.06;5052429;28;20021;-81
2021/10/05 05:17:43;;;;;;;13.27;9.00;;;;;;;10.34;51.92;100372.09;5052248;28;20049;-81
2021/10/05 05:20:09;;;;;;;15.30;9.13;;;;;;;10.86;52.04;100451.31;5052354;28;20103;-80
2021/10/05 05:22:36;;;;;;;20.52;11.90;;;;;;;10.96;51.97;100459.09;5052061;28;20031;-80
2021/10/05 05:25:02;;;;;;;19.45;10.55;;;;;;;10.64;52.08;100381.38;5052043;28;20105;-76
2021/10/05 05:27:27;;;;;;;21.00;12.18;;;;;;;10.99;52.01;100446.41;5051987;28;20104;-75
2021/10/05 05:29:52;;;;;;;23.77;14.95;;;;;;;11.17;52.05;100450.81;5051877;28;20486;-76
2021/10/05 05:32:18;;;;;;;31.63;17.30;;;;;;;10.71;51.83;100365.72;5051964;28;20151;-75
2021/10/05 05:34:44;;;;;;;26.83;17.45;;;;;;;11.31;51.81;100458.94;5051751;28;20032;-75
2021/10/05 05:37:09;;;;;;;25.95;16.20;;;;;;;11.31;51.90;100443.09;5051878;28;20033;-75
2021/10/05 05:39:39;;;;;;;20.05;13.45;;;;;;;11.45;51.64;100447.75;5051773;28;20063;-76
2021/10/05 05:42:06;;;;;;;20.70;11.05;;;;;;;11.10;51.91;100392.44;5051415;28;20037;-76
2021/10/05 05:44:32;;;;;;;19.02;9.98;;;;;;;10.73;51.87;100329.41;5051573;28;20090;-76
2021/10/05 05:46:57;;;;;;;13.93;8.88;;;;;;;11.27;51.59;100403.91;5051544;28;20044;-76
2021/10/05 05:49:22;;;;;;;15.07;9.55;;;;;;;11.68;52.04;100460.38;5051434;28;20075;-76
2021/10/05 05:51:48;;;;;;;20.67;10.00;;;;;;;11.75;52.16;100461.38;5051549;28;20057;-76
2021/10/05 05:54:13;;;;;;;15.90;9.27;;;;;;;11.63;51.80;100430.94;5061101;28;20027;-76
2021/10/05 05:56:39;;;;;;;15.65;8.93;;;;;;;11.90;52.13;100466.91;5050956;28;20031;-74
2021/10/05 05:59:04;;;;;;;12.77;7.97;;;;;;;11.92;52.67;100470.22;5051301;28;20463;-75
2021/10/05 06:01:30;;;;;;;17.77;9.77;;;;;;;11.85;52.35;100442.72;5058357;28;20077;-75
2021/10/05 06:03:55;;;;;;;15.13;8.65;;;;;;;12.01;52.74;100467.41;5071088;28;20487;-76
2021/10/05 06:06:20;;;;;;;23.67;11.23;;;;;;;12.19;52.59;100479.66;5061080;28;20112;-75
2021/10/05 06:08:47;;;;;;;18.13;9.93;;;;;;;11.86;52.27;100417.91;5051069;28;20021;-76
2021/10/05 06:11:13;;;;;;;22.23;13.23;;;;;;;12.24;52.85;100478.16;5051112;28;20098;-75
2021/10/05 06:13:39;;;;;;;24.08;14.80;;;;;;;12.45;52.82;100485.59;5050955;28;20486;-75
2021/10/05 06:16:04;;;;;;;23.23;12.55;;;;;;;12.53;52.75;100511.25;5059380;28;20036;-75
2021/10/05 06:18:29;;;;;;;20.67;13.43;;;;;;;12.46;52.95;100465.22;5062408;28;20040;-75
2021/10/05 06:20:55;;;;;;;19.88;12.63;;;;;;;12.75;52.62;100496.50;5051038;28;20025;-75
2021/10/05 06:23:21;;;;;;;19.10;10.07;;;;;;;12.78;53.00;100474.97;5058415;28;20111;-80
2021/10/05 06:25:46;;;;;;;15.88;10.38;;;;;;;12.98;53.00;100498.28;5069692;28;20025;-80
2021/10/05 06:28:12;;;;;;;21.52;9.98;;;;;;;13.08;54.01;100499.91;5071066;28;20043;-80
2021/10/05 06:30:37;;;;;;;26.85;10.43;;;;;;;13.17;54.05;100505.03;5071037;28;20405;-80
2021/10/05 06:33:03;;;;;;;15.60;9.13;;;;;;;12.40;53.94;100363.44;5069585;28;20473;-80
2021/10/05 06:35:30;;;;;;;14.23;9.23;;;;;;;13.27;53.92;100496.88;5070872;28;20028;-80
2021/10/05 06:37:58;;;;;;;17.98;9.80;;;;;;;12.49;53.55;100335.94;5070860;28;20052;-80
2021/10/05 06:40:26;;;;;;;15.32;9.63;;;;;;;13.66;53.87;100515.47;5071084;28;20027;-80
2021/10/05 06:42:52;;;;;;;16.80;10.20;;;;;;;13.76;54.56;100515.22;5070895;28;20032;-80
2021/10/05 06:45:18;;;;;;;11.80;9.02;;;;;;;13.32;54.76;100428.22;5070841;28;20039;-80
2021/10/05 06:47:44;;;;;;;15.68;10.63;;;;;;;13.94;55.08;100506.00;5071032;28;20024;-80
2021/10/05 06:50:10;;;;;;;15.23;10.90;;;;;;;13.95;55.30;100496.19;5070814;28;20112;-80
2021/10/05 06:52:35;;;;;;;21.77;15.90;;;;;;;13.92;55.60;100485.94;5070686;28;20527;-80
2021/10/05 06:55:03;;;;;;;14.98;8.90;;;;;;;14.12;55.62;100505.72;5060576;28;20115;-80
2021/10/05 06:57:28;;;;;;;12.88;7.85;;;;;;;14.04;55.61;100481.84;5060504;28;20082;-80
2021/10/05 06:59:54;;;;;;;14.50;8.20;;;;;;;14.37;55.64;100522.28;5056555;28;20029;-80
2021/10/05 07:02:19;;;;;;;12.75;8.50;;;;;;;14.47;55.53;100522.91;5067543;28;20845;-79
2021/10/05 07:04:44;;;;;;;15.57;9.63;;;;;;;14.03;55.62;100435.06;5066973;28;20479;-79
2021/10/05 07:07:10;;;;;;;16.92;10.88;;;;;;;14.38;55.57;100486.75;5064720;28;20032;-79
2021/10/05 07:09:35;;;;;;;17.50;9.80;;;;;;;13.96;55.58;100403.09;5053777;28;20021;-79
2021/10/05 07:12:01;;;;;;;25.42;16.83;;;;;;;14.63;55.51;100512.13;5057887;28;20025;-79
2021/10/05 07:14:26;;;;;;;10.60;9.50;;;;;;;14.78;55.54;100521.97;5057601;28;20029;-79
2021/10/05 07:16:52;;;;;;;12.15;8.07;;;;;;;14.91;55.35;100530.16;5053492;28;20025;-79
2021/10/05 07:19:20;;;;;;;12.73;8.50;;;;;;;14.97;55.17;100534.75;5053609;28;20112;-79
2021/10/05 07:21:45;;;;;;;9.95;7.20;;;;;;;14.96;55.15;100516.31;5054926;28;21059;-79
2021/10/05 07:24:11;;;;;;;17.38;12.93;;;;;;;14.94;55.04;100504.03;5068792;28;20052;-73
2021/10/05 07:26:36;;;;;;;12.75;8.02;;;;;;;14.76;55.11;100458.34;5069844;28;20053;-75
2021/10/05 07:29:02;;;;;;;14.35;7.63;;;;;;;15.05;54.95;100494.78;5056654;28;20460;-76
2021/10/05 07:31:29;;;;;;;11.52;8.68;;;;;;;15.21;54.95;100507.06;5060953;28;20493;-76
2021/10/05 07:33:55;;;;;;;12.68;9.13;;;;;;;15.34;54.63;100509.06;5053365;28;20488;-76
2021/10/05 07:36:20;;;;;;;10.10;8.63;;;;;;;15.26;54.24;100481.53;5065997;28;20132;-76
2021/10/05 07:38:46;;;;;;;23.00;18.23;;;;;;;15.58;54.29;100516.75;5073381;28;20027;-75
2021/10/05 07:41:11;;;;;;;14.30;8.40;;;;;;;15.70;54.04;100523.28;5072271;28;20028;-77
2021/10/05 07:43:37;;;;;;;17.00;7.75;;;;;;;15.78;53.80;100531.16;5064642;28;20114;-76
2021/10/05 07:46:03;;;;;;;15.80;7.40;;;;;;;15.80;53.58;100509.66;5052623;28;20065;-76
2021/10/05 07:48:28;;;;;;;19.42;10.38;;;;;;;15.94;53.80;100521.28;5053396;28;20079;-76
2021/10/05 07:50:54;;;;;;;8.98;6.28;;;;;;;16.01;53.55;100519.50;5063310;28;20483;-76
2021/10/05 07:53:20;;;;;;;14.00;8.00;;;;;;;16.05;53.42;100523.44;5065619;28;20413;-76
2021/10/05 07:55:45;;;;;;;13.20;7.35;;;;;;;16.14;53.20;100527.63;5054802;28;20104;-77
2021/10/05 07:58:11;;;;;;;13.15;8.98;;;;;;;16.17;53.28;100513.94;5065415;28;20035;-77
2021/10/05 08:00:36;;;;;;;11.02;5.85;;;;;;;15.21;52.97;100348.25;5073065;28;20086;-76
2021/10/05 08:03:02;;;;;;;9.98;6.82;;;;;;;16.18;52.97;100494.28;5053805;28;20107;-76
2021/10/05 08:05:28;;;;;;;13.57;7.40;;;;;;;16.49;52.91;100524.09;5052211;28;20090;-76
2021/10/05 08:07:59;;;;;;;13.23;8.10;;;;;;;16.57;52.96;100536.47;5053117;28;20020;-76
2021/10/05 08:10:25;;;;;;;14.25;6.47;;;;;;;16.62;52.59;100517.22;5051581;28;20047;-76
2021/10/05 08:12:51;;;;;;;11.32;6.00;;;;;;;16.73;52.42;100522.88;5053101;28;20025;-76
2021/10/05 08:15:16;;;;;;;10.35;6.53;;;;;;;16.77;52.20;100509.97;5072339;28;20032;-76
2021/10/05 08:17:42;;;;;;;11.75;5.85;;;;;;;16.89;52.13;100521.75;5064280;28;20091;-76
2021/10/05 08:20:10;;;;;;;7.40;5.18;;;;;;;16.98;51.97;100515.25;5051241;28;20051;-76
2021/10/05 08:22:36;;;;;;;14.25;8.70;;;;;;;16.31;51.99;100386.97;5051432;28;20036;-76
2021/10/05 08:25:03;;;;;;;9.70;6.10;;;;;;;17.17;52.00;100526.25;5052844;28;20112;-74
2021/10/05 08:27:29;;;;;;;8.85;6.05;;;;;;;17.18;52.05;100509.22;5054384;28;20496;-74
2021/10/05 08:29:54;;;;;;;12.57;6.75;;;;;;;16.18;51.75;100337.06;5052738;28;20021;-76
2021/10/05 08:32:20;;;;;;;11.40;5.93;;;;;;;17.28;51.95;100499.00;5050708;28;20048;-76
2021/10/05 08:34:46;;;;;;;9.27;5.85;;;;;;;17.45;51.87;100506.47;5052441;28;20029;-75
2021/10/05 08:37:11;;;;;;;8.15;5.82;;;;;;;17.55;51.52;100511.44;5064310;28;20079;-76
2021/10/05 08:39:37;;;;;;;14.77;6.50;;;;;;;17.68;51.16;100508.84;5055100;28;20061;-76
2021/10/05 08:42:04;;;;;;;14.02;6.32;;;;;;;17.70;51.04;100488.09;5052134;28;20025;-76
2021/10/05 08:44:29;;;;;;;14.73;5.75;;;;;;;17.98;50.48;100505.88;5051983;28;20509;-75
2021/10/05 08:46:55;;;;;;;12.23;5.93;;;;;;;18.02;50.46;100504.44;5052298;28;20159;-75
2021/10/05 08:49:22;;;;;;;9.70;6.32;;;;;;;18.03;50.10;100482.03;5059730;28;20109;-75
2021/10/05 08:51:48;;;;;;;9.90;5.57;;;;;;;18.32;49.75;100502.22;5051567;28;20037;-74
2021/10/05 08:54:14;;;;;;;9.30;6.75;;;;;;;18.17;49.68;100467.66;5061136;28;20043;-76
2021/10/05 08:56:44;;;;;;;11.75;7.43;;;;;;;18.49;49.22;100495.41;5070923;28;20401;-73
2021/10/05 08:59:10;;;;;;;8.82;6.15;;;;;;;18.47;49.04;100492.13;5070906;28;20035;-76
2021/10/05 09:01:38;;;;;;;12.52;7.28;;;;;;;18.39;49.03;100498.50;5071266;28;20113;-76
2021/10/05 09:04:05;;;;;;;11.65;7.57;;;;;;;18.46;48.73;100492.34;5071758;28;20064;-77
2021/10/05 09:06:31;;;;;;;12.43;6.97;;;;;;;18.56;48.61;100506.13;5071745;28;20032;-76
2021/10/05 09:08:57;;;;;;;9.40;7.13;;;;;;;18.22;48.01;100438.47;5070069;28;20580;-76
2021/10/05 09:11:24;;;;;;;8.40;7.22;;;;;;;18.71;47.69;100485.38;5069460;28;20067;-77
2021/10/05 09:13:54;;;;;;;13.65;6.85;;;;;;;18.93;46.96;100494.81;5069311;28;20029;-76
2021/10/05 09:16:22;;;;;;;12.52;7.88;;;;;;;18.98;46.68;100499.53;5069251;28;20111;-76
2021/10/05 09:19:04;;;;;;;17.90;7.10;;;;;;;19.10;46.32;100475.63;5069374;28;20087;-76
2021/10/05 09:21:49;;;;;;;11.65;6.43;;;;;;;19.40;45.59;100495.50;5069273;28;20047;-76
2021/10/05 09:24:25;;;;;;;8.32;5.00;;;;;;;19.47;44.12;100485.59;5070868;28;20473;-76
2021/10/05 09:27:03;;;;;;;8.88;5.80;;;;;;;19.50;44.12;100500.41;5070202;28;20044;-75
2021/10/05 09:29:33;;;;;;;9.55;5.25;;;;;;;19.51;44.17;100497.53;5070370;28;20044;-75
2021/10/05 09:32:01;;;;;;;9.27;5.80;;;;;;;19.75;43.96;100496.00;5061626;28;20484;-76
2021/10/05 09:34:50;;;;;;;12.45;5.65;;;;;;;20.01;43.42;100489.66;5051246;28;20025;-76
2021/10/05 09:37:22;;;;;;;8.18;4.90;;;;;;;19.89;42.60;100440.44;5051351;28;20025;-76
2021/10/05 09:39:52;;;;;;;10.20;6.43;;;;;;;20.47;41.99;100501.94;5053815;28;20025;-75
2021/10/05 09:42:25;;;;;;;7.18;5.75;;;;;;;20.61;41.39;100501.59;5071563;28;20115;-76
2021/10/05 09:44:56;;;;;;;10.20;5.22;;;;;;;20.74;40.99;100503.34;5071380;28;20482;-76
2021/10/05 09:47:41;;;;;;;8.05;5.10;;;;;;;21.03;39.36;100493.78;5071135;28;20524;-75
2021/10/05 09:50:12;;;;;;;9.52;6.00;;;;;;;21.14;40.31;100482.28;5065005;28;20100;-76
2021/10/05 09:52:47;;;;;;;11.13;6.82;;;;;;;21.16;40.03;100477.53;5059447;28;20082;-76
2021/10/05 09:55:14;;;;;;;8.77;6.55;;;;;;;21.45;39.70;100489.38;5070081;28;20048;-76
2021/10/05 09:57:39;;;;;;;29.35;26.20;;;;;;;21.60;39.28;100475.59;5071084;28;20547;-75
2021/10/05 10:00:07;;;;;;;20.67;14.13;;;;;;;21.84;39.06;100468.41;5070924;28;20021;-76
2021/10/05 10:02:36;;;;;;;9.57;6.38;;;;;;;22.18;38.84;100486.53;5071046;28;20027;-75
2021/10/05 10:05:02;;;;;;;9.65;7.10;;;;;;;21.91;38.68;100495.22;5071112;28;20022;-75
2021/10/05 10:07:28;;;;;;;13.15;6.10;;;;;;;20.62;39.52;100365.56;5066241;28;20013;-76
2021/10/05 10:09:54;;;;;;;8.18;5.47;;;;;;;21.19;39.87;100487.81;5062117;28;20040;-76
2021/10/05 10:12:20;;;;;;;9.18;6.40;;;;;;;21.19;39.61;100450.22;5050976;28;20434;-76
2021/10/05 10:14:49;;;;;;;11.63;6.75;;;;;;;21.54;39.24;100460.34;5066131;28;20047;-76
2021/10/05 10:17:35;;;;;;;8.52;6.45;;;;;;;21.78;38.75;100486.28;5070921;28;20115;-76
2021/10/05 10:20:01;;;;;;;7.07;6.38;;;;;;;21.55;39.22;100465.50;5069445;28;20093;-75
2021/10/05 10:22:26;;;;;;;9.30;5.80;;;;;;;21.30;39.49;100494.31;5070339;28;20028;-76
2021/10/05 10:24:54;;;;;;;12.75;6.68;;;;;;;20.36;40.20;100411.41;5055690;28;20021;-75
2021/10/05 10:27:21;;;;;;;8.52;6.00;;;;;;;20.53;40.42;100474.22;5059215;28;20017;-76
2021/10/05 10:29:48;;;;;;;8.35;6.60;;;;;;;19.97;40.91;100403.47;5067006;28;20028;-77
2021/10/05 10:32:13;;;;;;;9.20;6.80;;;;;;;20.49;40.85;100473.03;5054715;28;20040;-77
2021/10/05 10:34:42;;;;;;;8.02;5.63;;;;;;;20.75;40.29;100470.09;5070761;28;20029;-75
2021/10/05 10:37:20;;;;;;;9.73;7.45;;;;;;;21.00;39.83;100439.72;5071012;28;20483;-76
2021/10/05 10:39:47;;;;;;;10.23;5.82;;;;;;;21.56;39.07;100463.66;5062074;28;20518;-76
2021/10/05 10:42:27;;;;;;;10.10;5.97;;;;;;;21.73;38.82;100472.72;5053536;28;20405;-75
2021/10/05 10:44:52;;;;;;;13.88;8.23;;;;;;;21.64;38.52;100441.81;5060521;28;20100;-75
2021/10/05 10:47:21;;;;;;;11.50;5.70;;;;;;;21.77;38.20;100473.06;5050657;28;20551;-75
2021/10/05 10:50:03;;;;;;;7.63;5.95;;;;;;;21.98;36.90;100467.16;5050767;28;20559;-74
2021/10/05 10:52:36;;;;;;;12.82;5.53;;;;;;;22.22;36.37;100454.63;5049711;28;20063;-76
2021/10/05 10:55:04;;;;;;;8.45;5.28;;;;;;;22.43;36.67;100454.06;5057592;28;20056;-75
2021/10/05 10:57:39;;;;;;;7.63;5.22;;;;;;;22.29;35.59;100419.53;5061552;28;20078;-75
2021/10/05 11:00:23;;;;;;;8.05;5.63;;;;;;;22.45;35.46;100435.81;5061815;28;20409;-76
2021/10/05 11:02:57;;;;;;;8.88;5.05;;;;;;;22.17;35.38;100363.03;5050891;28;20021;-76
2021/10/05 11:05:24;;;;;;;8.07;4.68;;;;;;;22.63;35.08;100437.56;5061635;28;20107;-75
2021/10/05 11:07:57;;;;;;;6.45;5.05;;;;;;;22.84;34.93;100444.25;5062212;28;20033;-75
2021/10/05 11:10:30;;;;;;;10.00;5.03;;;;;;;22.96;34.87;100446.94;5063325;28;20020;-76
2021/10/05 11:12:59;;;;;;;6.85;5.15;;;;;;;22.96;34.90;100436.97;5050911;28;20020;-75
2021/10/05 11:15:32;;;;;;;8.80;4.82;;;;;;;23.23;34.04;100460.72;5061591;28;20013;-76
2021/10/05 11:18:27;;;;;;;11.88;7.63;;;;;;;23.01;34.94;100444.34;5050465;28;20032;-75
2021/10/05 11:20:56;;;;;;;9.40;5.55;;;;;;;23.04;34.56;100435.81;5068038;28;20112;-76